Time;durP1;ratioP1;P1;durP2;ratioP2;P2;SDS_P1;SDS_P2;PMS_P1;PMS_P2;Temp;Humidity;BMP_temperature;BMP_pressure;BME280_temperature;BME280_humidity;BME280_pressure;Samples;Min_cycle;Max_cycle;Signal;HPM_P1;HPM_P2
2021/04/29 07:25:31;;;;;;;0.50;0.40;;;8.30;99.90;;;;;;5157751;23;20405;-90
2021/04/29 07:27:57;;;;;;;0.20;0.20;;;8.30;99.90;;;;;;5035168;28;20050;-93
2021/04/29 07:30:24;;;;;;;0.40;0.35;;;10.90;99.90;;;;;;5035106;28;20057;-94
2021/04/29 07:32:50;;;;;;;0.75;0.43;;;11.10;99.90;;;;;;5035261;28;20059;-91
2021/04/29 07:35:17;;;;;;;0.43;0.30;;;13.80;99.90;;;;;;5035159;28;20045;-90
2021/04/29 07:37:44;;;;;;;0.40;0.40;;;15.30;94.60;;;;;;5035166;28;20054;-89
2021/04/29 07:40:11;;;;;;;0.10;0.10;;;16.80;75.60;;;;;;5034885;28;20213;-88
2021/04/29 07:42:38;;;;;;;0.80;0.25;;;18.00;63.80;;;;;;5037959;28;20049;-84
2021/04/29 07:45:06;;;;;;;0.30;0.30;;;17.30;66.10;;;;;;5038840;28;20057;-85
2021/04/29 07:47:33;;;;;;;1.00;0.63;;;15.90;65.40;;;;;;5038482;28;20458;-86
2021/04/29 07:49:59;;;;;;;0.15;0.15;;;14.20;69.40;;;;;;5038911;28;20053;-87
2021/04/29 07:52:26;;;;;;;0.20;0.20;;;12.70;85.80;;;;;;5038913;28;20049;-87
2021/04/29 07:54:52;;;;;;;0.35;0.35;;;11.50;92.30;;;;;;5038880;28;20137;-88
2021/04/29 07:57:20;;;;;;;0.30;0.20;;;10.70;98.50;;;;;;5038512;28;20466;-87
2021/04/29 07:59:47;;;;;;;0.85;0.60;;;10.70;99.90;;;;;;5038481;28;20053;-88
2021/04/29 08:02:14;;;;;;;0.20;0.08;;;12.10;99.90;;;;;;5038560;28;20053;-88
2021/04/29 08:04:41;;;;;;;0.85;0.20;;;12.40;94.80;;;;;;5038836;28;20440;-88
2021/04/29 08:07:07;;;;;;;0.35;0.35;;;12.20;90.60;;;;;;5038525;28;20060;-88
2021/04/29 08:09:34;;;;;;;0.70;0.30;;;11.70;91.60;;;;;;5038252;28;20053;-88
2021/04/29 08:12:00;;;;;;;0.45;0.40;;;11.30;97.00;;;;;;5038406;28;20292;-88
2021/04/29 08:14:27;;;;;;;10.77;0.57;;;11.00;96.60;;;;;;5038299;28;20458;-88
2021/04/29 08:16:54;;;;;;;0.65;0.20;;;10.80;99.90;;;;;;5038478;28;20049;-88
2021/04/29 08:19:21;;;;;;;0.90;0.28;;;10.60;99.90;;;;;;5038154;28;20073;-88
2021/04/29 08:21:47;;;;;;;0.25;0.13;;;10.30;99.90;;;;;;5038220;28;20106;-88
2021/04/29 08:24:14;;;;;;;0.80;0.30;;;10.20;99.90;;;;;;5038134;28;20057;-87
2021/04/29 08:26:41;;;;;;;1.42;0.50;;;10.10;99.90;;;;;;5037989;28;20055;-88
2021/04/29 08:29:07;;;;;;;1.38;0.50;;;10.00;99.90;;;;;;5038073;28;20049;-88
2021/04/29 08:31:34;;;;;;;0.10;0.10;;;10.00;99.90;;;;;;5037978;28;20485;-89
2021/04/29 08:34:01;;;;;;;0.68;0.30;;;9.90;99.90;;;;;;5038017;28;20053;-89
2021/04/29 08:36:30;;;;;;;0.90;0.10;;;9.90;99.90;;;;;;5037783;28;20053;-87
2021/04/29 08:38:56;;;;;;;;;;;9.80;99.90;;;;;;5038440;28;20053;-90
2021/04/29 08:41:22;;;;;;;;;;;9.80;99.90;;;;;;5038207;28;19921;-89
2021/04/29 08:43:49;;;;;;;;;;;9.80;99.90;;;;;;5038250;28;20027;-89
2021/04/29 08:46:15;;;;;;;;;;;9.60;99.90;;;;;;5038120;28;19921;-91
2021/04/29 08:48:41;;;;;;;;;;;9.50;99.90;;;;;;5038432;28;19920;-90
2021/04/29 08:51:09;;;;;;;;;;;9.40;99.90;;;;;;5038131;28;19921;-90
2021/04/29 08:53:35;;;;;;;;;;;9.30;99.90;;;;;;5037951;28;20063;-90
2021/04/29 08:56:01;;;;;;;;;;;9.40;99.90;;;;;;5037920;28;19927;-90
2021/04/29 08:58:28;;;;;;;;;;;9.40;99.90;;;;;;5038104;28;19951;-88
2021/04/29 09:00:58;;;;;;;;;;;9.50;99.90;;;;;;5037945;28;19925;-89
2021/04/29 09:03:28;;;;;;;0.25;0.20;;;9.50;99.90;;;;;;5037170;28;20433;-90
2021/04/29 09:05:57;;;;;;;0.00;0.00;;;9.60;99.90;;;;;;5037777;28;20053;-91
2021/04/29 09:08:27;;;;;;;3.10;0.45;;;9.50;99.90;;;;;;5037250;28;20062;-90
2021/04/29 09:10:54;;;;;;;0.10;0.10;;;9.40;99.90;;;;;;5037265;28;20519;-91
2021/04/29 09:13:21;;;;;;;1.10;0.47;;;9.30;99.90;;;;;;5037539;28;20403;-90
2021/04/29 09:15:48;;;;;;;0.17;0.10;;;9.30;99.90;;;;;;5037087;28;20068;-91
2021/04/29 09:18:15;;;;;;;0.08;0.00;;;9.20;99.90;;;;;;5037475;28;20064;-90
2021/04/29 09:20:50;;;;;;;3.25;0.30;;;9.20;99.90;;;;;;5037233;28;20131;-91
2021/04/29 09:23:18;;;;;;;0.15;0.10;;;9.10;99.90;;;;;;5037054;28;20055;-89
2021/04/29 09:25:53;;;;;;;4.95;0.80;;;9.20;99.90;;;;;;5036962;28;20049;-90
2021/04/29 09:28:20;;;;;;;0.32;0.30;;;9.10;99.90;;;;;;5036864;28;20057;-91
2021/04/29 09:30:47;;;;;;;;;;;9.10;99.90;;;;;;5037220;28;20056;-89
2021/04/29 09:33:13;;;;;;;;;;;9.10;99.90;;;;;;5037242;28;19921;-90
2021/04/29 09:35:39;;;;;;;;;;;9.20;99.90;;;;;;5037083;28;19921;-90
2021/04/29 09:38:09;;;;;;;;;;;9.30;99.90;;;;;;5037120;28;19925;-90
2021/04/29 09:40:38;;;;;;;;;;;9.30;99.90;;;;;;5037059;28;19983;-90
2021/04/29 09:43:06;;;;;;;;;;;9.40;99.90;;;;;;5036728;28;19971;-90
2021/04/29 09:45:34;;;;;;;;;;;9.30;99.90;;;;;;5037020;28;19921;-90
2021/04/29 09:48:01;;;;;;;;;;;9.20;99.90;;;;;;5037055;28;19932;-90
2021/04/29 09:50:27;;;;;;;;;;;9.10;99.90;;;;;;5037002;28;19921;-90
2021/04/29 09:53:07;;;;;;;;;;;9.00;99.90;;;;;;5036720;28;20257;-89
2021/04/29 09:55:36;;;;;;;;;;;8.90;99.90;;;;;;5037064;28;19921;-87
2021/04/29 09:58:03;;;;;;;;;;;8.80;99.90;;;;;;5037086;28;19921;-85
2021/04/29 10:00:30;;;;;;;;;;;8.80;99.90;;;;;;5039657;28;20231;-86
2021/04/29 10:02:57;;;;;;;;;;;8.80;99.90;;;;;;5040891;28;19921;-84
2021/04/29 10:05:23;;;;;;;;;;;8.70;99.90;;;;;;5042211;28;19988;-84
2021/04/29 10:07:50;;;;;;;;;;;8.70;99.90;;;;;;5040263;28;19921;-85
2021/04/29 10:10:17;;;;;;;;;;;8.80;99.90;;;;;;5038434;28;19921;-86
2021/04/29 10:12:43;;;;;;;;;;;8.90;99.90;;;;;;5036692;28;20315;-87
2021/04/29 10:15:10;;;;;;;;;;;9.10;99.90;;;;;;5036781;28;19971;-89
2021/04/29 10:17:37;;;;;;;;;;;9.10;99.90;;;;;;5036410;28;19925;-90
2021/04/29 10:20:04;;;;;;;;;;;9.10;99.90;;;;;;5035887;28;19920;-89
2021/04/29 10:22:30;;;;;;;;;;;9.10;99.90;;;;;;5036798;28;19932;-87
2021/04/29 10:24:56;;;;;;;;;;;9.10;99.90;;;;;;5037688;28;20266;-87
2021/04/29 10:27:23;;;;;;;;;;;9.00;99.90;;;;;;5036316;28;20350;-86
2021/04/29 10:29:49;;;;;;;;;;;9.00;99.90;;;;;;5039360;28;19921;-86
2021/04/29 10:32:16;;;;;;;;;;;9.10;99.90;;;;;;5038194;28;19979;-86
2021/04/29 10:34:44;;;;;;;;;;;9.10;99.90;;;;;;5036767;28;19936;-87
2021/04/29 10:37:14;;;;;;;;;;;9.10;99.90;;;;;;5036294;28;19929;-85
2021/04/29 10:39:49;;;;;;;;;;;9.10;99.90;;;;;;5036559;28;19932;-85
2021/04/29 10:42:16;;;;;;;;;;;8.90;99.90;;;;;;5039249;28;19955;-85
2021/04/29 10:44:42;;;;;;;;;;;8.90;99.90;;;;;;5039644;28;19925;-85
2021/04/29 10:47:09;;;;;;;;;;;9.00;99.90;;;;;;5038092;28;20334;-85
2021/04/29 10:49:42;;;;;;;;;;;9.00;99.90;;;;;;5036570;28;19991;-85
2021/04/29 10:52:09;;;;;;;;;;;9.10;99.90;;;;;;5036251;28;19921;-87
2021/04/29 10:54:36;;;;;;;;;;;9.20;99.90;;;;;;5036024;28;19925;-88
2021/04/29 10:57:05;;;;;;;;;;;9.30;99.90;;;;;;5036365;28;19921;-88
2021/04/29 10:59:40;;;;;;;;;;;9.30;99.90;;;;;;5041979;28;19924;-87
2021/04/29 11:02:07;;;;;;;;;;;9.20;99.90;;;;;;5044131;28;19921;-82
2021/04/29 11:04:39;;;;;;;;;;;9.20;99.90;;;;;;5038033;28;19921;-84
2021/04/29 11:07:10;;;;;;;;;;;9.20;99.90;;;;;;5041296;28;19925;-86
2021/04/29 11:09:37;;;;;;;;;;;9.20;99.90;;;;;;5040738;28;19925;-89
2021/04/29 11:12:04;;;;;;;;;;;9.10;99.90;;;;;;5040535;28;19931;-85
2021/04/29 11:14:38;;;;;;;;;;;9.10;99.90;;;;;;5038795;28;20364;-86
2021/04/29 11:17:04;;;;;;;;;;;9.10;99.90;;;;;;5042918;28;20035;-89
2021/04/29 11:19:40;;;;;;;;;;;9.10;99.90;;;;;;5038011;28;19935;-86
2021/04/29 11:22:08;;;;;;;;;;;9.10;99.90;;;;;;5037848;28;19920;-86
2021/04/29 11:24:38;;;;;;;;;;;9.20;99.90;;;;;;5035470;28;19921;-87
2021/04/29 11:27:05;;;;;;;;;;;9.30;99.90;;;;;;5035978;28;19921;-88
2021/04/29 11:29:37;;;;;;;;;;;9.30;99.90;;;;;;5035274;28;20361;-87
2021/04/29 11:32:04;;;;;;;;;;;9.30;99.90;;;;;;5035511;28;19979;-88
2021/04/29 11:34:40;;;;;;;;;;;9.30;99.90;;;;;;5035289;28;20001;-87
2021/04/29 11:37:06;;;;;;;;;;;9.40;99.90;;;;;;5035648;28;19931;-88
2021/04/29 11:39:33;;;;;;;;;;;9.60;99.90;;;;;;5035675;28;19921;-89
2021/04/29 11:42:00;;;;;;;;;;;9.70;99.90;;;;;;5035629;28;19933;-89
2021/04/29 11:44:27;;;;;;;;;;;9.80;99.90;;;;;;5035463;28;20339;-90
2021/04/29 11:46:54;;;;;;;;;;;9.80;99.90;;;;;;5035265;28;19921;-89
2021/04/29 11:49:20;;;;;;;;;;;9.70;99.90;;;;;;5035636;28;19920;-88
2021/04/29 11:51:47;;;;;;;;;;;9.50;99.90;;;;;;5036083;28;19921;-88
2021/04/29 11:54:16;;;;;;;;;;;9.30;99.90;;;;;;5038145;28;20019;-87
2021/04/29 11:56:42;;;;;;;;;;;9.10;99.90;;;;;;5039484;28;19921;-86
2021/04/29 11:59:10;;;;;;;;;;;9.00;99.90;;;;;;5043498;28;20008;-86
2021/04/29 12:01:36;;;;;;;;;;;9.00;99.90;;;;;;5044648;28;19921;-86
2021/04/29 12:04:13;;;;;;;;;;;9.00;99.90;;;;;;5046013;28;19928;-87
2021/04/29 12:06:45;;;;;;;;;;;9.10;99.90;;;;;;5041821;28;19943;-87
2021/04/29 12:09:12;;;;;;;;;;;9.20;99.90;;;;;;5037089;28;19935;-86
2021/04/29 12:11:38;;;;;;;;;;;9.30;99.90;;;;;;5039876;28;19927;-85
2021/04/29 12:14:05;;;;;;;;;;;9.40;99.90;;;;;;5045409;28;19921;-85
2021/04/29 12:16:33;;;;;;;;;;;9.40;99.90;;;;;;5038387;28;20362;-87
2021/04/29 12:18:59;;;;;;;;;;;9.40;99.90;;;;;;5035010;28;19931;-87
2021/04/29 12:21:27;;;;;;;;;;;9.50;99.90;;;;;;5034861;28;19925;-88
2021/04/29 12:23:55;;;;;;;;;;;9.50;99.90;;;;;;5034952;28;19932;-89
2021/04/29 12:26:27;;;;;;;;;;;9.50;99.90;;;;;;5034054;28;20324;-89
2021/04/29 12:28:58;;;;;;;;;;;9.50;99.90;;;;;;5037836;28;19921;-90
2021/04/29 12:31:24;;;;;;;;;;;9.50;99.90;;;;;;5038512;28;19921;-89
2021/04/29 12:33:52;;;;;;;;;;;9.50;99.90;;;;;;5038486;28;19931;-89
2021/04/29 12:36:18;;;;;;;;;;;9.50;99.90;;;;;;5038539;28;19924;-90
2021/04/29 12:38:45;;;;;;;;;;;9.50;99.90;;;;;;5038592;28;19921;-90
2021/04/29 12:41:11;;;;;;;;;;;9.50;99.90;;;;;;5038674;28;19936;-90
2021/04/29 12:43:38;;;;;;;;;;;9.60;99.90;;;;;;5038175;28;20333;-89
2021/04/29 12:46:05;;;;;;;;;;;9.60;99.90;;;;;;5038477;28;19921;-90
2021/04/29 12:48:32;;;;;;;;;;;9.70;99.90;;;;;;5038413;28;19924;-91
2021/04/29 12:51:00;;;;;;;;;;;9.70;99.90;;;;;;5038093;28;19931;-90
2021/04/29 12:53:26;;;;;;;;;;;9.80;99.90;;;;;;5038260;28;19932;-90
2021/04/29 12:55:53;;;;;;;;;;;9.80;99.90;;;;;;5038201;28;19921;-91
2021/04/29 12:58:23;;;;;;;;;;;9.80;99.90;;;;;;5038278;28;19921;-90
2021/04/29 13:00:50;;;;;;;;;;;9.70;99.90;;;;;;5038101;28;19931;-90
2021/04/29 13:03:16;;;;;;;;;;;9.70;99.90;;;;;;5038124;28;19921;-91
2021/04/29 13:05:42;;;;;;;;;;;9.60;99.90;;;;;;5037879;28;20361;-89
2021/04/29 13:08:10;;;;;;;;;;;9.70;99.90;;;;;;5037832;28;19921;-90
2021/04/29 13:10:40;;;;;;;;;;;9.60;99.90;;;;;;5037991;28;19955;-90
2021/04/29 13:13:06;;;;;;;;;;;9.70;99.90;;;;;;5038077;28;19921;-89
2021/04/29 13:15:33;;;;;;;;;;;9.70;98.70;;;;;;5037644;28;19921;-89
2021/04/29 13:18:00;;;;;;;;;;;9.70;99.90;;;;;;5037637;28;20007;-90
2021/04/29 13:20:29;;;;;;;;;;;9.70;99.90;;;;;;5037783;28;19927;-89
2021/04/29 13:22:55;;;;;;;;;;;9.70;99.90;;;;;;5037638;28;19921;-89
2021/04/29 13:25:24;;;;;;;;;;;9.70;99.90;;;;;;5037428;28;19925;-90
2021/04/29 13:27:51;;;;;;;;;;;9.70;99.90;;;;;;5037652;28;19929;-90
2021/04/29 13:30:18;;;;;;;;;;;9.80;97.20;;;;;;5037709;28;19979;-90
2021/04/29 13:32:44;;;;;;;;;;;9.90;99.90;;;;;;5037765;28;19975;-91
2021/04/29 13:35:12;;;;;;;;;;;9.90;98.70;;;;;;5037308;28;20356;-90
2021/04/29 13:37:38;;;;;;;;;;;9.90;99.80;;;;;;5037436;28;20338;-90
2021/04/29 13:40:06;;;;;;;;;;;10.00;99.90;;;;;;5036185;28;20326;-91
2021/04/29 13:42:34;;;;;;;;;;;10.10;97.00;;;;;;5037301;28;20008;-90
2021/04/29 13:45:00;;;;;;;;;;;10.10;97.80;;;;;;5037354;28;19968;-89
2021/04/29 13:47:26;;;;;;;;;;;10.20;97.70;;;;;;5037357;28;19929;-89
2021/04/29 13:49:53;;;;;;;;;;;10.20;99.90;;;;;;5037018;28;20311;-91
2021/04/29 13:52:19;;;;;;;;;;;10.20;99.90;;;;;;5036993;28;19995;-90
2021/04/29 13:54:45;;;;;;;;;;;10.20;99.70;;;;;;5037232;28;19921;-89
2021/04/29 13:57:12;;;;;;;;;;;10.20;99.50;;;;;;5036832;28;19925;-90
2021/04/29 13:59:41;;;;;;;;;;;10.20;99.90;;;;;;5037009;28;19921;-90
2021/04/29 14:02:07;;;;;;;;;;;10.10;99.90;;;;;;5036959;28;19921;-91
2021/04/29 14:04:33;;;;;;;;;;;10.10;99.90;;;;;;5036898;28;19921;-91
2021/04/29 14:07:00;;;;;;;;;;;10.10;99.90;;;;;;5036823;28;19920;-91
2021/04/29 14:09:26;;;;;;;;;;;10.10;99.90;;;;;;5036887;28;19927;-91
2021/04/29 14:11:52;;;;;;;;;;;10.10;99.90;;;;;;5036582;28;20345;-91
2021/04/29 14:14:19;;;;;;;;;;;10.10;99.90;;;;;;5036518;28;19932;-91
2021/04/29 14:16:46;;;;;;;;;;;10.00;99.90;;;;;;5036749;28;20293;-91
2021/04/29 14:19:16;;;;;;;;;;;10.00;98.00;;;;;;5036498;28;20360;-90
2021/04/29 14:21:42;;;;;;;;;;;10.00;99.40;;;;;;5036437;28;20361;-91
2021/04/29 14:24:09;;;;;;;;;;;9.90;98.90;;;;;;5036110;28;20400;-91
2021/04/29 14:26:35;;;;;;;;;;;9.90;98.40;;;;;;5036435;28;20358;-91
2021/04/29 14:29:01;;;;;;;;;;;10.00;94.10;;;;;;5036317;28;19925;-90
2021/04/29 14:31:28;;;;;;;;;;;10.00;95.90;;;;;;5036414;28;19932;-90
2021/04/29 14:33:55;;;;;;;;;;;10.00;93.50;;;;;;5036569;28;19960;-90
2021/04/29 14:36:21;;;;;;;;;;;10.00;95.20;;;;;;5036431;28;19924;-90
2021/04/29 14:38:48;;;;;;;;;;;10.00;92.80;;;;;;5042245;28;19931;-91
2021/04/29 14:41:14;;;;;;;;;;;10.00;96.30;;;;;;5039764;28;19960;-88
2021/04/29 14:43:41;;;;;;;;;;;9.90;94.30;;;;;;5036263;28;19921;-89
2021/04/29 14:46:07;;;;;;;;;;;9.80;90.80;;;;;;5036327;28;19921;-90
2021/04/29 14:48:33;;;;;;;;;;;9.80;97.30;;;;;;5036242;28;19999;-90
2021/04/29 14:51:00;;;;;;;;;;;9.70;98.80;;;;;;5035563;28;19927;-89
2021/04/29 14:53:27;;;;;;;;;;;9.70;97.40;;;;;;5039520;28;19920;-88
2021/04/29 14:55:53;;;;;;;;;;;9.70;96.90;;;;;;5035673;28;19928;-87
2021/04/29 14:58:20;;;;;;;;;;;9.70;99.20;;;;;;5035935;28;19921;-89
2021/04/29 15:00:46;;;;;;;;;;;9.70;99.90;;;;;;5039628;28;20050;-89
2021/04/29 15:03:12;;;;;;;;;;;9.70;99.90;;;;;;5035956;28;19931;-88
2021/04/29 15:05:39;;;;;;;;;;;9.80;99.90;;;;;;5035743;28;19921;-91
2021/04/29 15:08:06;;;;;;;;;;;9.90;99.90;;;;;;5035795;28;19925;-88
2021/04/29 15:10:33;;;;;;;;;;;10.00;99.90;;;;;;5036245;28;19932;-96
2021/04/29 15:13:01;;;;;;;;;;;11.80;99.90;;;;;;5036259;28;19928;-95
2021/04/29 15:15:27;;;;;;;;;;;10.10;99.90;;;;;;5036779;28;20363;-95
2021/04/29 15:17:55;;;;;;;;;;;10.20;99.90;;;;;;5039027;28;19921;-96
2021/04/29 15:20:23;;;;;;;;;;;10.20;97.20;;;;;;5037383;28;20342;-95
2021/04/29 15:22:55;;;;;;;;;;;10.40;96.70;;;;;;5038322;28;20004;-96
2021/04/29 15:25:25;;;;;;;;;;;10.40;92.20;;;;;;5055278;28;19931;-96
2021/04/29 15:27:53;;;;;;;;;;;10.50;92.60;;;;;;5057223;28;20326;-96
2021/04/29 15:30:22;;;;;;;;;;;10.60;94.10;;;;;;5060479;28;19920;-96
2021/04/29 15:32:48;;;;;;;;;;;10.40;90.40;;;;;;5057677;28;20016;-95
2021/04/29 15:35:15;;;;;;;;;;;10.40;86.40;;;;;;5056136;28;19920;-95
2021/04/29 15:37:41;;;;;;;;;;;8.50;89.20;;;;;;5056218;28;19920;-96
2021/04/29 15:40:08;;;;;;;;;;;10.20;83.50;;;;;;5055813;28;20011;-95
2021/04/29 15:42:36;;;;;;;;;;;10.20;75.20;;;;;;5055997;28;20019;-95
2021/04/29 15:45:03;;;;;;;;;;;9.60;71.50;;;;;;5055752;28;19920;-95
2021/04/29 15:47:29;;;;;;;;;;;10.10;79.30;;;;;;5055510;28;20331;-96
2021/04/29 15:49:56;;;;;;;;;;;10.20;89.40;;;;;;5058092;28;20019;-95
2021/04/29 15:52:22;;;;;;;;;;;10.20;98.20;;;;;;5066651;28;20267;-96
2021/04/29 15:54:49;;;;;;;;;;;10.20;99.90;;;;;;5056321;28;19921;-96
2021/04/29 15:57:15;;;;;;;;;;;10.30;99.90;;;;;;5056898;28;19921;-96
2021/04/29 15:59:42;;;;;;;;;;;11.00;99.90;;;;;;5057579;28;19929;-95
2021/04/29 16:02:09;;;;;;;;;;;9.50;99.90;;;;;;5057209;28;19999;-96
2021/04/29 16:04:35;;;;;;;;;;;12.60;99.90;;;;;;5060588;28;19921;-96
2021/04/29 16:07:02;;;;;;;;;;;7.00;99.90;;;;;;5059952;28;19967;-95
2021/04/29 16:09:28;;;;;;;;;;;10.10;99.90;;;;;;5059552;28;19943;-96
2021/04/29 16:11:55;;;;;;;;;;;6.50;99.90;;;;;;5059373;28;19920;-94
2021/04/29 16:14:21;;;;;;;;;;;9.90;99.90;;;;;;5059384;28;19931;-95
2021/04/29 16:16:49;;;;;;;;;;;9.80;99.90;;;;;;5058170;28;19930;-96
2021/04/29 16:19:16;;;;;;;;;;;9.80;99.90;;;;;;5059174;28;19921;-95
2021/04/29 16:21:42;;;;;;;;;;;9.70;99.90;;;;;;5058711;28;19982;-94
2021/04/29 16:24:09;;;;;;;;;;;9.70;99.90;;;;;;5059046;28;19928;-94
2021/04/29 16:26:36;;;;;;;;;;;9.60;99.90;;;;;;5058927;28;19978;-94
2021/04/29 16:29:02;;;;;;;;;;;9.60;99.90;;;;;;5059004;28;19958;-94
2021/04/29 16:31:29;;;;;;;;;;;9.50;99.90;;;;;;5059677;28;19931;-93
2021/04/29 16:42:31;;;;;;;;;;;9.20;99.90;;;;;;5071625;23;20019;-94
2021/04/29 16:44:58;;;;;;;;;;;9.20;99.90;;;;;;5039261;28;19974;-94
2021/04/29 16:47:25;;;;;;;;;;;9.20;99.90;;;;;;5038800;28;20261;-94
